createdAt,value
2019-04-29T00:00:40.241Z,14
2019-04-29T00:10:39.453Z,13.8
2019-04-29T00:20:38.675Z,13.6
2019-04-29T00:30:37.905Z,13.4
2019-04-29T00:40:37.119Z,13.4
2019-04-29T00:50:36.338Z,13.4
2019-04-29T01:00:35.552Z,13.4
2019-04-29T01:10:34.778Z,13.5
2019-04-29T01:20:34.001Z,13.6
2019-04-29T01:30:33.216Z,13.7
2019-04-29T01:40:32.430Z,13.8
2019-04-29T01:50:31.651Z,13.8
2019-04-29T02:00:30.873Z,13.8
2019-04-29T02:10:30.091Z,13.8
2019-04-29T02:20:29.327Z,13.8
2019-04-29T02:30:28.532Z,13.8
2019-04-29T02:40:27.752Z,13.8
2019-04-29T02:50:26.969Z,13.8
2019-04-29T03:00:26.182Z,13.8
2019-04-29T03:10:25.414Z,13.8
2019-04-29T03:20:24.624Z,13.8
2019-04-29T03:30:23.847Z,13.8
2019-04-29T03:40:23.062Z,13.8
2019-04-29T03:50:22.282Z,13.8
2019-04-29T04:00:21.505Z,13.7
2019-04-29T04:10:20.730Z,13.8
2019-04-29T04:20:19.953Z,13.9
2019-04-29T04:30:19.191Z,14
2019-04-29T04:40:18.385Z,13.6
2019-04-29T04:50:17.600Z,13.6
2019-04-29T05:00:19.873Z,13.8
2019-04-29T05:10:16.032Z,13.9
2019-04-29T05:20:15.256Z,14.4
2019-04-29T05:30:14.478Z,15.1
2019-04-29T05:40:13.695Z,15.3
2019-04-29T05:50:16.644Z,15.9
2019-04-29T06:00:12.130Z,16
2019-04-29T06:10:11.351Z,16.6
2019-04-29T06:20:12.987Z,17.1
2019-04-29T06:30:09.840Z,17.2
2019-04-29T06:40:09.012Z,18
2019-04-29T06:50:08.291Z,19.6
2019-04-29T07:00:07.454Z,21.4
2019-04-29T07:10:06.674Z,21.4
2019-04-29T07:20:05.897Z,22.1
2019-04-29T07:30:06.417Z,22.9
2019-04-29T07:40:07.925Z,23.6
2019-04-29T07:50:03.620Z,23.4
2019-04-29T08:00:02.831Z,23.1
2019-04-29T08:10:02.004Z,22.8
2019-04-29T08:20:05.115Z,23.6
2019-04-29T08:30:00.456Z,24.1
2019-04-29T08:40:15.022Z,24.6
2019-04-29T08:49:58.892Z,24.3
2019-04-29T08:59:58.120Z,24.2
2019-04-29T09:10:01.567Z,25.1
2019-04-29T09:19:56.561Z,25.8
2019-04-29T09:29:58.713Z,25.2
2019-04-29T09:39:55.004Z,24.9
2019-04-29T09:49:54.230Z,25.9
2019-04-29T09:59:53.445Z,26.1
2019-04-29T10:09:57.194Z,26.3
2019-04-29T10:19:51.889Z,24.6
2019-04-29T10:29:55.113Z,25
2019-04-29T10:39:50.328Z,24.7
2019-04-29T10:49:49.906Z,23.7
2019-04-29T10:59:50.240Z,23.3
2019-04-29T11:09:50.688Z,22.9
2019-04-29T11:19:47.265Z,22.6
2019-04-29T11:29:46.429Z,22.3
2019-04-29T11:39:46.112Z,22.3
2019-04-29T11:49:47.699Z,22.8
2019-04-29T11:59:44.086Z,22.8
2019-04-29T12:09:43.308Z,22.7
2019-04-29T12:19:42.532Z,22.2
2019-04-29T12:29:41.757Z,21.9
2019-04-29T12:39:43.678Z,22
2019-04-29T12:49:42.342Z,21.9
2019-04-29T12:59:40.083Z,21.9
2019-04-29T13:09:39.186Z,21.7
2019-04-29T13:19:38.409Z,21.5
2019-04-29T13:29:37.682Z,21.7
2019-04-29T13:39:40.615Z,22.1
2019-04-29T13:49:36.122Z,21.9
2019-04-29T13:59:35.296Z,21.5
2019-04-29T14:09:34.925Z,21.2
2019-04-29T14:19:40.738Z,21.4
2019-04-29T14:29:32.958Z,21.6
2019-04-29T14:39:36.975Z,21.4
2019-04-29T14:49:31.397Z,21.6
2019-04-29T14:59:30.618Z,21.9
2019-04-29T15:09:29.927Z,22.1
2019-04-29T15:19:29.067Z,22
2019-04-29T15:29:28.297Z,22.1
2019-04-29T15:39:27.758Z,22
2019-04-29T15:49:26.774Z,21.9
2019-04-29T15:59:25.951Z,21.7
2019-04-29T16:09:28.489Z,21.7
2019-04-29T16:19:24.488Z,21.6
2019-04-29T16:29:23.619Z,21.3
2019-04-29T16:39:22.846Z,20.9
2019-04-29T16:49:22.376Z,20.5
2019-04-29T16:59:21.341Z,20.2
2019-04-29T17:09:23.084Z,19.8
2019-04-29T17:19:19.752Z,19.8
2019-04-29T17:30:25.412Z,19.9
2019-04-29T17:40:24.403Z,19.9
2019-04-29T17:50:29.857Z,19.8
2019-04-29T18:00:22.859Z,19.7
2019-04-29T18:10:24.066Z,19.5
2019-04-29T18:20:30.638Z,19.4
2019-04-29T18:30:33.022Z,19.3
2019-04-29T18:40:19.747Z,18.9
2019-04-29T18:50:18.970Z,18.8
2019-04-29T19:00:19.824Z,18.6
2019-04-29T19:10:18.569Z,18.4
2019-04-29T19:20:18.550Z,18.3
2019-04-29T19:30:20.661Z,18.1
2019-04-29T19:40:15.177Z,17.9
2019-04-29T19:50:16.363Z,17.8
2019-04-29T20:00:14.116Z,17.7
2019-04-29T20:10:13.728Z,17.8
2019-04-29T20:20:12.124Z,18
2019-04-29T20:30:17.413Z,18
2019-04-29T20:40:10.529Z,17.9
2019-04-29T20:50:13.615Z,17.8
2019-04-29T21:00:09.035Z,17.6
2019-04-29T21:10:08.493Z,17.5
2019-04-29T21:20:07.373Z,17.4
2019-04-29T21:30:06.541Z,17.4
2019-04-29T21:40:06.957Z,17.4
2019-04-29T21:50:05.114Z,17.4
2019-04-29T22:00:05.663Z,17.4
2019-04-29T22:10:05.177Z,17.4
2019-04-29T22:20:03.886Z,17.4
2019-04-29T22:30:01.930Z,17.4
2019-04-29T22:40:03.035Z,17.3
2019-04-29T22:50:03.082Z,17.3
2019-04-29T22:59:59.539Z,17.3
2019-04-29T23:09:58.809Z,17.2
2019-04-29T23:19:58.071Z,17.1
2019-04-29T23:29:57.193Z,17.1
2019-04-29T23:39:56.416Z,17.2
2019-04-29T23:49:55.632Z,17.1
2019-04-29T23:59:58.533Z,17.1
